createdAt,value
2022-11-17T00:00:28.319Z,-0.20
2022-11-17T00:02:55.254Z,-0.20
2022-11-17T00:05:22.533Z,-0.20
2022-11-17T00:07:50.111Z,-0.20
2022-11-17T00:10:17.830Z,-0.20
2022-11-17T00:13:03.483Z,-0.20
2022-11-17T00:15:30.588Z,-0.10
2022-11-17T00:18:16.125Z,-0.10
2022-11-17T00:21:01.478Z,-0.10
2022-11-17T00:23:47.190Z,-0.10
2022-11-17T00:26:18.722Z,-0.10
2022-11-17T00:28:45.638Z,-0.10
2022-11-17T00:31:33.725Z,-0.20
2022-11-17T00:34:06.841Z,-0.20
2022-11-17T00:36:43.106Z,-0.20
2022-11-17T00:39:11.585Z,-0.10
2022-11-17T00:41:38.713Z,-0.20
2022-11-17T00:44:06.302Z,-0.20
2022-11-17T00:46:33.793Z,-0.20
2022-11-17T00:49:00.746Z,-0.10
2022-11-17T00:51:27.764Z,-0.20
2022-11-17T00:53:54.809Z,-0.10
2022-11-17T00:56:22.391Z,-0.10
2022-11-17T00:58:49.763Z,-0.20
2022-11-17T01:01:16.686Z,-0.10
2022-11-17T01:03:43.921Z,-0.10
2022-11-17T01:06:16.596Z,-0.10
2022-11-17T01:08:44.077Z,-0.20
2022-11-17T01:11:13.675Z,-0.20
2022-11-17T01:13:41.428Z,-0.20
2022-11-17T01:16:11.841Z,-0.20
2022-11-17T01:18:39.883Z,-0.20
2022-11-17T01:21:15.764Z,-0.20
2022-11-17T01:23:44.987Z,-0.20
2022-11-17T01:26:14.244Z,-0.20
2022-11-17T01:28:41.861Z,-0.20
2022-11-17T01:31:15.305Z,-0.30
2022-11-17T01:33:42.541Z,-0.30
2022-11-17T01:36:15.910Z,-0.40
2022-11-17T01:38:43.179Z,-0.40
2022-11-17T01:41:25.806Z,-0.50
2022-11-17T01:44:14.449Z,-0.40
2022-11-17T01:46:41.818Z,-0.40
2022-11-17T01:49:17.606Z,-0.40
2022-11-17T01:51:50.374Z,-0.50
2022-11-17T01:54:20.951Z,-0.60
2022-11-17T01:56:49.725Z,-0.50
2022-11-17T01:59:31.614Z,-0.50
2022-11-17T02:01:59.055Z,-0.50
2022-11-17T02:04:33.689Z,-0.40
2022-11-17T02:07:20.046Z,-0.50
2022-11-17T02:09:47.404Z,-0.50
2022-11-17T02:12:16.320Z,-0.50
2022-11-17T02:14:43.363Z,-0.50
2022-11-17T02:17:14.225Z,-0.40
2022-11-17T02:19:44.265Z,-0.40
2022-11-17T02:22:39.952Z,-0.40
2022-11-17T02:25:27.034Z,-0.40
2022-11-17T02:28:17.735Z,-0.40
2022-11-17T02:30:47.698Z,-0.40
2022-11-17T02:33:23.599Z,-0.40
2022-11-17T02:36:06.026Z,-0.30
2022-11-17T02:38:50.600Z,-0.30
2022-11-17T02:41:29.066Z,-0.30
2022-11-17T02:44:06.417Z,-0.30
2022-11-17T02:46:48.318Z,-0.30
2022-11-17T02:49:37.858Z,-0.30
2022-11-17T02:52:06.448Z,-0.30
2022-11-17T02:54:33.960Z,-0.30
2022-11-17T02:57:01.454Z,-0.30
2022-11-17T02:59:34.565Z,-0.30
2022-11-17T03:02:13.311Z,-0.30
2022-11-17T03:04:49.009Z,-0.30
2022-11-17T03:07:40.143Z,-0.30
2022-11-17T03:10:58.386Z,-0.30
2022-11-17T03:13:54.168Z,-0.20
2022-11-17T03:16:47.096Z,-0.20
2022-11-17T03:19:13.959Z,-0.30
2022-11-17T03:21:53.094Z,-0.30
2022-11-17T03:24:35.993Z,-0.40
2022-11-17T03:27:13.215Z,-0.50
2022-11-17T03:29:44.617Z,-0.50
2022-11-17T03:32:13.009Z,-0.50
2022-11-17T03:37:29.921Z,-0.60
2022-11-17T03:40:06.155Z,-0.60
2022-11-17T03:42:36.613Z,-0.60
2022-11-17T03:45:09.692Z,-0.50
2022-11-17T03:47:37.339Z,-0.50
2022-11-17T03:50:07.662Z,-0.60
2022-11-17T03:52:36.054Z,-0.60
2022-11-17T03:55:03.297Z,-0.60
2022-11-17T03:58:00.409Z,-0.70
2022-11-17T04:00:27.364Z,-0.60
2022-11-17T04:02:56.549Z,-0.60
2022-11-17T04:05:23.559Z,-0.60
2022-11-17T04:07:50.534Z,-0.60
2022-11-17T04:10:20.435Z,-0.60
2022-11-17T04:13:08.000Z,-0.60
2022-11-17T04:15:54.164Z,-0.60
2022-11-17T04:18:22.786Z,-0.60
2022-11-17T04:20:51.410Z,-0.60
2022-11-17T04:23:18.619Z,-0.50
2022-11-17T04:26:06.543Z,-0.50
2022-11-17T04:28:38.917Z,-0.50
2022-11-17T04:31:19.041Z,-0.50
2022-11-17T04:33:48.268Z,-0.50
2022-11-17T04:36:17.774Z,-0.50
2022-11-17T04:38:46.683Z,-0.40
2022-11-17T04:41:33.557Z,-0.40
2022-11-17T04:44:01.143Z,-0.40
2022-11-17T04:46:30.595Z,-0.40
2022-11-17T04:48:58.647Z,-0.40
2022-11-17T04:51:26.668Z,-0.40
2022-11-17T04:53:53.995Z,-0.40
2022-11-17T04:56:22.246Z,-0.40
2022-11-17T04:58:49.767Z,-0.30
2022-11-17T05:01:17.586Z,-0.30
2022-11-17T05:03:55.716Z,-0.30
2022-11-17T05:06:23.826Z,-0.20
2022-11-17T05:08:55.678Z,-0.20
2022-11-17T05:11:43.170Z,-0.20
2022-11-17T05:14:10.303Z,-0.20
2022-11-17T05:16:55.604Z,-0.20
2022-11-17T05:19:25.918Z,-0.30
2022-11-17T05:21:53.398Z,-0.30
2022-11-17T05:24:20.776Z,-0.30
2022-11-17T05:26:49.574Z,-0.30
2022-11-17T05:29:19.996Z,-0.30
2022-11-17T05:31:47.608Z,-0.30
2022-11-17T05:34:17.460Z,-0.30
2022-11-17T05:36:44.940Z,-0.30
2022-11-17T05:39:12.114Z,-0.20
2022-11-17T05:41:39.055Z,-0.20
2022-11-17T05:44:06.157Z,-0.20
2022-11-17T05:46:33.102Z,-0.20
2022-11-17T05:49:00.068Z,-0.20
2022-11-17T05:51:27.154Z,-0.30
2022-11-17T05:53:54.111Z,-0.30
2022-11-17T05:56:41.223Z,-0.30
2022-11-17T05:59:46.904Z,-0.30
2022-11-17T06:02:28.887Z,-0.30
2022-11-17T06:04:55.798Z,-0.40
2022-11-17T06:07:22.906Z,-0.30
2022-11-17T06:09:51.191Z,-0.30
2022-11-17T06:12:18.641Z,-0.30
2022-11-17T06:14:45.556Z,-0.30
2022-11-17T06:17:22.503Z,-0.20
2022-11-17T06:19:57.271Z,-0.20
2022-11-17T06:22:26.744Z,-0.20
2022-11-17T06:24:54.449Z,-0.20
2022-11-17T06:27:21.866Z,-0.20
2022-11-17T06:29:49.673Z,-0.20
2022-11-17T06:32:18.277Z,-0.20
2022-11-17T06:34:53.629Z,-0.10
2022-11-17T06:37:22.431Z,-0.10
2022-11-17T06:39:49.312Z,-0.10
2022-11-17T06:42:16.408Z,0.00
2022-11-17T06:44:43.641Z,-0.10
2022-11-17T06:47:10.547Z,0.00
2022-11-17T06:49:37.436Z,0.00
2022-11-17T06:52:04.361Z,0.00
2022-11-17T06:54:31.263Z,-0.10
2022-11-17T06:56:58.459Z,0.00
2022-11-17T06:59:25.514Z,0.00
2022-11-17T07:01:52.601Z,0.00
2022-11-17T07:04:19.563Z,0.00
2022-11-17T07:06:46.468Z,0.00
2022-11-17T07:09:13.422Z,0.00
2022-11-17T07:11:40.388Z,0.00
2022-11-17T07:14:07.384Z,0.00
2022-11-17T07:16:34.385Z,0.10
2022-11-17T07:19:03.654Z,0.10
2022-11-17T07:21:30.821Z,0.10
2022-11-17T07:23:57.901Z,0.10
2022-11-17T07:26:25.376Z,0.00
2022-11-17T07:28:52.347Z,0.00
2022-11-17T07:31:19.304Z,0.10
2022-11-17T07:33:46.245Z,0.10
2022-11-17T07:36:15.211Z,0.20
2022-11-17T07:38:42.833Z,0.20
2022-11-17T07:41:12.615Z,0.20
2022-11-17T07:43:39.999Z,0.30
2022-11-17T07:46:12.787Z,0.30
2022-11-17T07:48:40.888Z,0.30
2022-11-17T07:51:08.077Z,0.30
2022-11-17T07:53:35.797Z,0.20
2022-11-17T07:56:07.572Z,0.30
2022-11-17T07:58:35.237Z,0.40
2022-11-17T08:01:17.019Z,0.50
2022-11-17T08:03:44.649Z,0.60
2022-11-17T08:06:12.185Z,0.60
2022-11-17T08:08:39.835Z,0.60
2022-11-17T08:11:11.346Z,0.70
2022-11-17T08:13:39.669Z,0.70
2022-11-17T08:16:08.223Z,0.70
2022-11-17T08:18:36.145Z,0.80
2022-11-17T08:21:13.741Z,0.80
2022-11-17T08:23:41.506Z,0.80
2022-11-17T08:26:10.936Z,0.80
2022-11-17T08:28:38.641Z,0.80
2022-11-17T08:31:07.265Z,0.90
2022-11-17T08:33:34.804Z,0.90
2022-11-17T08:36:03.348Z,0.90
2022-11-17T08:38:31.086Z,1.00
2022-11-17T08:40:59.723Z,1.10
2022-11-17T08:43:26.715Z,1.10
2022-11-17T08:45:53.630Z,1.20
2022-11-17T08:48:21.016Z,1.30
2022-11-17T08:50:48.500Z,1.40
2022-11-17T08:53:21.117Z,1.50
2022-11-17T08:55:48.548Z,1.50
2022-11-17T08:58:15.661Z,1.50
2022-11-17T09:00:43.006Z,1.50
2022-11-17T09:03:11.501Z,1.60
2022-11-17T09:05:44.277Z,1.60
2022-11-17T09:08:43.905Z,1.60
2022-11-17T09:11:08.575Z,1.60
2022-11-17T09:13:36.543Z,1.60
2022-11-17T09:16:10.922Z,1.60
2022-11-17T09:18:39.328Z,1.60
2022-11-17T09:21:08.870Z,1.60
2022-11-17T09:23:36.806Z,1.60
2022-11-17T09:26:12.858Z,1.60
2022-11-17T09:28:40.553Z,1.60
2022-11-17T09:31:13.284Z,1.60
2022-11-17T09:33:40.371Z,1.50
2022-11-17T09:36:07.749Z,1.50
2022-11-17T09:38:36.543Z,1.50
2022-11-17T09:41:23.466Z,1.40
2022-11-17T09:44:23.778Z,1.40
2022-11-17T09:47:12.479Z,1.40
2022-11-17T09:50:00.473Z,1.40
2022-11-17T09:52:52.098Z,1.30
2022-11-17T09:55:39.270Z,1.40
2022-11-17T09:58:34.386Z,1.50
2022-11-17T10:01:02.145Z,1.50
2022-11-17T10:03:41.810Z,1.60
2022-11-17T10:06:18.085Z,1.60
2022-11-17T10:09:02.020Z,1.60
2022-11-17T10:11:35.259Z,1.60
2022-11-17T10:14:04.200Z,1.50
2022-11-17T10:16:31.517Z,1.60
2022-11-17T10:18:58.576Z,1.60
2022-11-17T10:21:30.728Z,1.60
2022-11-17T10:23:59.158Z,1.60
2022-11-17T10:26:26.444Z,1.50
2022-11-17T10:29:14.875Z,1.50
2022-11-17T10:31:44.930Z,1.40
2022-11-17T10:34:34.112Z,1.40
2022-11-17T10:37:06.092Z,1.40
2022-11-17T10:39:41.666Z,1.40
2022-11-17T10:42:20.473Z,1.40
2022-11-17T10:44:53.143Z,1.40
2022-11-17T10:47:30.870Z,1.40
2022-11-17T10:50:25.126Z,1.40
2022-11-17T10:52:54.474Z,1.50
2022-11-17T10:55:24.426Z,1.50
2022-11-17T10:58:00.923Z,1.50
2022-11-17T11:00:31.580Z,1.50
2022-11-17T11:03:14.829Z,1.50
2022-11-17T11:05:59.670Z,1.50
2022-11-17T11:09:01.154Z,1.60
2022-11-17T11:11:44.798Z,1.60
2022-11-17T11:14:44.093Z,1.70
2022-11-17T11:17:16.643Z,1.70
2022-11-17T11:19:53.812Z,1.80
2022-11-17T11:22:48.465Z,1.80
2022-11-17T11:25:36.502Z,1.80
2022-11-17T11:28:39.016Z,1.80
2022-11-17T11:31:26.427Z,1.80
2022-11-17T11:34:30.200Z,1.90
2022-11-17T11:37:04.430Z,1.90
2022-11-17T11:40:10.018Z,1.80
2022-11-17T11:43:06.438Z,1.80
2022-11-17T11:45:55.571Z,1.80
2022-11-17T11:48:33.838Z,1.80
2022-11-17T11:51:04.410Z,1.80
2022-11-17T11:53:51.701Z,1.80
2022-11-17T11:56:27.434Z,1.90
2022-11-17T11:59:26.107Z,1.90
2022-11-17T12:02:11.150Z,1.80
2022-11-17T12:04:43.738Z,1.80
2022-11-17T12:07:29.856Z,1.80
2022-11-17T12:10:00.795Z,1.80
2022-11-17T12:12:31.041Z,1.70
2022-11-17T12:15:12.019Z,1.60
2022-11-17T12:18:10.871Z,1.60
2022-11-17T12:20:49.798Z,1.60
2022-11-17T12:23:36.975Z,1.60
2022-11-17T12:26:04.308Z,1.60
2022-11-17T12:28:41.192Z,1.60
2022-11-17T12:31:32.815Z,1.60
2022-11-17T12:33:59.936Z,1.60
2022-11-17T12:36:31.953Z,1.60
2022-11-17T12:39:01.220Z,1.70
2022-11-17T12:41:49.901Z,1.70
2022-11-17T12:44:38.577Z,1.70
2022-11-17T12:47:21.535Z,1.70
2022-11-17T12:49:51.231Z,1.70
2022-11-17T12:52:27.777Z,1.70
2022-11-17T12:55:16.180Z,1.70
2022-11-17T12:57:47.065Z,1.80
2022-11-17T13:00:24.131Z,1.80
2022-11-17T13:03:15.060Z,1.80
2022-11-17T13:05:42.026Z,1.80
2022-11-17T13:08:22.365Z,1.80
2022-11-17T13:10:49.945Z,1.70
2022-11-17T13:13:24.949Z,1.70
2022-11-17T13:15:54.477Z,1.60
2022-11-17T13:18:54.469Z,1.60
2022-11-17T13:21:29.742Z,1.60
2022-11-17T13:23:58.529Z,1.60
2022-11-17T13:26:26.543Z,1.60
2022-11-17T13:29:11.392Z,1.60
2022-11-17T13:31:38.291Z,1.60
2022-11-17T13:34:16.750Z,1.60
2022-11-17T13:36:59.010Z,1.60
2022-11-17T13:39:29.529Z,1.60
2022-11-17T13:41:57.747Z,1.60
2022-11-17T13:44:26.668Z,1.60
2022-11-17T13:46:53.597Z,1.60
2022-11-17T13:49:39.574Z,1.60
2022-11-17T13:52:31.093Z,1.60
2022-11-17T13:55:01.891Z,1.60
2022-11-17T13:57:30.829Z,1.60
2022-11-17T14:00:05.971Z,1.60
2022-11-17T14:02:33.219Z,1.60
2022-11-17T14:05:14.520Z,1.60
2022-11-17T14:07:43.155Z,1.60
2022-11-17T14:10:23.590Z,1.60
2022-11-17T14:12:54.484Z,1.60
2022-11-17T14:15:25.831Z,1.60
2022-11-17T14:17:57.867Z,1.60
2022-11-17T14:20:24.802Z,1.60
2022-11-17T14:23:13.480Z,1.60
2022-11-17T14:25:44.860Z,1.60
2022-11-17T14:28:16.056Z,1.60
2022-11-17T14:30:43.215Z,1.60
2022-11-17T14:33:13.583Z,1.60
2022-11-17T14:35:41.912Z,1.60
2022-11-17T14:38:18.280Z,1.60
2022-11-17T14:40:45.188Z,1.60
2022-11-17T14:43:12.325Z,1.60
2022-11-17T14:45:39.261Z,1.60
2022-11-17T14:48:06.363Z,1.60
2022-11-17T14:50:33.648Z,1.60
2022-11-17T14:53:00.679Z,1.60
2022-11-17T14:55:27.843Z,1.60
2022-11-17T14:57:54.766Z,1.60
2022-11-17T15:00:21.852Z,1.70
2022-11-17T15:02:49.422Z,1.70
2022-11-17T15:05:16.396Z,1.70
2022-11-17T15:07:43.936Z,1.70
2022-11-17T15:10:11.653Z,1.70
2022-11-17T15:12:38.633Z,1.70
2022-11-17T15:15:06.028Z,1.70
2022-11-17T15:17:33.192Z,1.70
2022-11-17T15:20:00.248Z,1.60
2022-11-17T15:22:27.224Z,1.70
2022-11-17T15:24:54.146Z,1.60
2022-11-17T15:27:21.060Z,1.60
2022-11-17T15:29:48.032Z,1.60
2022-11-17T15:32:14.942Z,1.60
2022-11-17T15:34:41.864Z,1.60
2022-11-17T15:37:08.869Z,1.70
2022-11-17T15:39:35.960Z,1.60
2022-11-17T15:42:02.904Z,1.70
2022-11-17T15:44:29.861Z,1.70
2022-11-17T15:46:56.849Z,1.70
2022-11-17T15:49:23.771Z,1.60
2022-11-17T15:51:50.694Z,1.60
2022-11-17T15:54:20.821Z,1.50
2022-11-17T15:56:48.101Z,1.50
2022-11-17T15:59:15.303Z,1.40
2022-11-17T16:01:42.642Z,1.40
2022-11-17T16:04:15.711Z,1.30
2022-11-17T16:06:44.848Z,1.30
2022-11-17T16:09:12.771Z,1.30
2022-11-17T16:11:40.630Z,1.30
2022-11-17T16:14:07.819Z,1.20
2022-11-17T16:16:36.623Z,1.20
2022-11-17T16:19:04.975Z,1.10
2022-11-17T16:21:32.832Z,1.10
2022-11-17T16:24:01.048Z,1.00
2022-11-17T16:26:29.355Z,1.00
2022-11-17T16:29:01.379Z,1.00
2022-11-17T16:31:31.158Z,1.00
2022-11-17T16:34:03.333Z,1.00
2022-11-17T16:36:36.270Z,0.90
2022-11-17T16:39:05.321Z,0.90
2022-11-17T16:41:34.880Z,0.90
2022-11-17T16:44:02.678Z,0.80
2022-11-17T16:46:31.573Z,0.80
2022-11-17T16:49:05.158Z,0.80
2022-11-17T16:51:32.616Z,0.70
2022-11-17T16:54:05.151Z,0.70
2022-11-17T16:56:33.640Z,0.80
2022-11-17T16:59:00.843Z,0.80
2022-11-17T17:01:30.545Z,0.80
2022-11-17T17:03:59.234Z,0.80
2022-11-17T17:06:27.190Z,0.80
2022-11-17T17:09:03.200Z,0.70
2022-11-17T17:11:32.019Z,0.70
2022-11-17T17:14:01.349Z,0.70
2022-11-17T17:16:29.115Z,0.60
2022-11-17T17:18:59.513Z,0.60
2022-11-17T17:21:28.238Z,0.60
2022-11-17T17:23:55.542Z,0.60
2022-11-17T17:26:23.999Z,0.60
2022-11-17T17:28:54.270Z,0.50
2022-11-17T17:31:22.664Z,0.50
2022-11-17T17:33:50.843Z,0.50
2022-11-17T17:36:20.206Z,0.40
2022-11-17T17:38:53.321Z,0.40
2022-11-17T17:41:23.708Z,0.40
2022-11-17T17:43:56.880Z,0.30
2022-11-17T17:46:24.149Z,0.30
2022-11-17T17:48:51.417Z,0.30
2022-11-17T17:51:21.015Z,0.30
2022-11-17T17:53:50.227Z,0.20
2022-11-17T17:56:19.420Z,0.20
2022-11-17T17:58:48.763Z,0.20
2022-11-17T18:01:17.233Z,0.20
2022-11-17T18:03:46.454Z,0.20
2022-11-17T18:06:14.795Z,0.20
2022-11-17T18:08:41.880Z,0.20
2022-11-17T18:11:12.863Z,0.20
2022-11-17T18:13:42.429Z,0.20
2022-11-17T18:16:15.215Z,0.20
2022-11-17T18:18:45.739Z,0.10
2022-11-17T18:21:15.052Z,0.10
2022-11-17T18:23:42.342Z,0.20
2022-11-17T18:26:11.547Z,0.20
2022-11-17T18:28:40.054Z,0.20
2022-11-17T18:31:08.363Z,0.20
2022-11-17T18:33:36.340Z,0.20
2022-11-17T18:36:08.241Z,0.20
2022-11-17T18:38:36.877Z,0.10
2022-11-17T18:41:03.791Z,0.20
2022-11-17T18:43:31.846Z,0.20
2022-11-17T18:46:06.883Z,0.20
2022-11-17T18:48:35.354Z,0.20
2022-11-17T18:51:20.304Z,0.20
2022-11-17T18:53:49.400Z,0.20
2022-11-17T18:56:18.593Z,0.30
2022-11-17T18:58:45.921Z,0.30
2022-11-17T19:01:18.117Z,0.30
2022-11-17T19:03:47.162Z,0.40
2022-11-17T19:06:15.400Z,0.50
2022-11-17T19:08:42.559Z,0.50
2022-11-17T19:11:10.814Z,0.60
2022-11-17T19:13:39.469Z,0.60
2022-11-17T19:16:17.686Z,0.50
2022-11-17T19:18:46.940Z,0.50
2022-11-17T19:21:21.285Z,0.50
2022-11-17T19:23:51.903Z,0.50
2022-11-17T19:26:27.968Z,0.50
2022-11-17T19:28:56.465Z,0.50
2022-11-17T19:31:24.079Z,0.50
2022-11-17T19:33:51.401Z,0.60
2022-11-17T19:36:26.786Z,0.60
2022-11-17T19:38:55.260Z,0.70
2022-11-17T19:41:24.895Z,0.60
2022-11-17T19:44:00.875Z,0.60
2022-11-17T19:46:28.993Z,0.70
2022-11-17T19:48:56.906Z,0.70
2022-11-17T19:51:32.555Z,0.70
2022-11-17T19:54:03.002Z,0.80
2022-11-17T19:56:30.422Z,0.70
2022-11-17T19:58:58.091Z,0.70
2022-11-17T20:01:27.678Z,0.70
2022-11-17T20:03:55.602Z,0.70
2022-11-17T20:06:27.303Z,0.80
2022-11-17T20:08:55.450Z,0.80
2022-11-17T20:11:27.735Z,0.90
2022-11-17T20:13:55.491Z,0.90
2022-11-17T20:16:25.307Z,0.90
2022-11-17T20:18:54.517Z,0.90
2022-11-17T20:21:22.221Z,0.90
2022-11-17T20:23:50.375Z,0.90
2022-11-17T20:26:19.922Z,0.90
2022-11-17T20:28:48.048Z,0.80
2022-11-17T20:31:17.772Z,0.80
2022-11-17T20:33:45.343Z,0.80
2022-11-17T20:36:15.298Z,0.80
2022-11-17T20:38:42.340Z,0.80
2022-11-17T20:41:09.633Z,0.80
2022-11-17T20:43:36.648Z,0.90
2022-11-17T20:46:04.079Z,0.90
2022-11-17T20:48:34.286Z,0.90
2022-11-17T20:51:06.875Z,0.90
2022-11-17T20:53:34.836Z,0.90
2022-11-17T20:56:03.695Z,0.90
2022-11-17T20:58:31.250Z,1.00
2022-11-17T21:00:58.757Z,0.90
2022-11-17T21:03:27.047Z,1.00
2022-11-17T21:05:58.730Z,1.00
2022-11-17T21:08:29.156Z,1.00
2022-11-17T21:11:04.209Z,1.00
2022-11-17T21:13:33.704Z,1.00
2022-11-17T21:16:13.679Z,1.00
2022-11-17T21:18:46.399Z,1.00
2022-11-17T21:21:14.000Z,1.00
2022-11-17T21:23:41.719Z,1.00
2022-11-17T21:26:14.229Z,1.00
2022-11-17T21:28:41.658Z,1.00
2022-11-17T21:31:37.438Z,1.00
2022-11-17T21:34:06.551Z,1.00
2022-11-17T21:36:34.603Z,1.00
2022-11-17T21:39:01.722Z,1.00
2022-11-17T21:41:31.248Z,1.00
2022-11-17T21:44:00.150Z,1.00
2022-11-17T21:46:29.380Z,1.00
2022-11-17T21:48:58.121Z,1.00
2022-11-17T21:51:38.600Z,1.00
2022-11-17T21:54:10.112Z,1.00
2022-11-17T21:56:37.394Z,1.00
2022-11-17T21:59:09.684Z,1.00
2022-11-17T22:01:37.266Z,1.00
2022-11-17T22:04:05.002Z,1.00
2022-11-17T22:06:31.912Z,1.00
2022-11-17T22:08:59.578Z,1.00
2022-11-17T22:11:38.190Z,1.00
2022-11-17T22:14:08.151Z,1.00
2022-11-17T22:16:40.793Z,1.00
2022-11-17T22:19:08.380Z,1.00
2022-11-17T22:21:39.327Z,1.00
2022-11-17T22:24:08.016Z,1.00
2022-11-17T22:26:38.172Z,1.00
2022-11-17T22:29:07.254Z,1.00
2022-11-17T22:31:34.379Z,1.00
2022-11-17T22:34:01.365Z,1.00
2022-11-17T22:36:28.311Z,1.00
2022-11-17T22:38:55.402Z,1.00
2022-11-17T22:41:23.365Z,1.00
2022-11-17T22:43:51.407Z,1.00
2022-11-17T22:46:18.884Z,0.90
2022-11-17T22:48:46.177Z,1.00
2022-11-17T22:51:34.327Z,1.00
2022-11-17T22:54:01.306Z,1.00
2022-11-17T22:56:28.285Z,1.00
2022-11-17T22:58:59.442Z,0.90
2022-11-17T23:01:26.793Z,1.00
2022-11-17T23:03:53.772Z,0.90
2022-11-17T23:06:22.651Z,1.00
2022-11-17T23:08:50.168Z,1.00
2022-11-17T23:14:06.253Z,0.90
2022-11-17T23:16:33.319Z,1.00
2022-11-17T23:19:00.437Z,0.90
2022-11-17T23:21:27.482Z,0.90
2022-11-17T23:23:54.498Z,0.90
2022-11-17T23:26:22.404Z,0.90
2022-11-17T23:28:49.410Z,0.90
2022-11-17T23:31:17.956Z,0.90
2022-11-17T23:33:46.753Z,0.90
2022-11-17T23:36:18.744Z,0.90
2022-11-17T23:38:46.369Z,0.80
2022-11-17T23:41:15.185Z,0.80
2022-11-17T23:43:42.498Z,0.80
2022-11-17T23:46:20.273Z,0.80
2022-11-17T23:48:47.293Z,0.80
2022-11-17T23:51:16.930Z,0.80
2022-11-17T23:53:44.440Z,0.80
2022-11-17T23:56:12.550Z,0.80
2022-11-17T23:58:40.297Z,0.70
